sensor_id;sensor_type;location;lat;lon;timestamp;P1;durP1;ratioP1;P2;durP2;ratioP2
73113;SDS011;61301;51.956;5.876;2023-10-31T00:01:37;1.23;;;0.40;;
73113;SDS011;61301;51.956;5.876;2023-10-31T00:04:03;1.15;;;0.70;;
73113;SDS011;61301;51.956;5.876;2023-10-31T00:06:30;2.33;;;0.57;;
73113;SDS011;61301;51.956;5.876;2023-10-31T00:08:56;2.05;;;0.70;;
73113;SDS011;61301;51.956;5.876;2023-10-31T00:11:22;1.55;;;0.77;;
73113;SDS011;61301;51.956;5.876;2023-10-31T00:13:48;2.40;;;0.70;;
73113;SDS011;61301;51.956;5.876;2023-10-31T00:16:14;2.00;;;0.50;;
73113;SDS011;61301;51.956;5.876;2023-10-31T00:18:39;2.38;;;0.57;;
73113;SDS011;61301;51.956;5.876;2023-10-31T00:21:05;1.52;;;0.77;;
73113;SDS011;61301;51.956;5.876;2023-10-31T00:23:31;1.50;;;0.60;;
73113;SDS011;61301;51.956;5.876;2023-10-31T00:25:57;1.02;;;0.60;;
73113;SDS011;61301;51.956;5.876;2023-10-31T00:28:23;1.50;;;0.68;;
73113;SDS011;61301;51.956;5.876;2023-10-31T00:30:49;0.40;;;0.35;;
73113;SDS011;61301;51.956;5.876;2023-10-31T00:33:15;1.35;;;0.47;;
73113;SDS011;61301;51.956;5.876;2023-10-31T00:35:41;1.42;;;0.40;;
73113;SDS011;61301;51.956;5.876;2023-10-31T00:38:08;0.90;;;0.50;;
73113;SDS011;61301;51.956;5.876;2023-10-31T00:40:34;2.80;;;0.60;;
73113;SDS011;61301;51.956;5.876;2023-10-31T00:43:00;3.38;;;0.65;;
73113;SDS011;61301;51.956;5.876;2023-10-31T00:45:27;2.45;;;0.73;;
73113;SDS011;61301;51.956;5.876;2023-10-31T00:47:53;3.03;;;1.05;;
73113;SDS011;61301;51.956;5.876;2023-10-31T00:50:18;3.55;;;0.98;;
73113;SDS011;61301;51.956;5.876;2023-10-31T00:52:44;3.28;;;1.05;;
73113;SDS011;61301;51.956;5.876;2023-10-31T00:55:10;2.40;;;0.63;;
73113;SDS011;61301;51.956;5.876;2023-10-31T00:57:37;4.57;;;1.13;;
73113;SDS011;61301;51.956;5.876;2023-10-31T01:00:04;3.40;;;1.15;;
73113;SDS011;61301;51.956;5.876;2023-10-31T01:02:30;1.27;;;0.57;;
73113;SDS011;61301;51.956;5.876;2023-10-31T01:04:56;3.60;;;0.88;;
73113;SDS011;61301;51.956;5.876;2023-10-31T01:07:23;4.43;;;0.95;;
73113;SDS011;61301;51.956;5.876;2023-10-31T01:09:49;1.25;;;0.60;;
73113;SDS011;61301;51.956;5.876;2023-10-31T01:12:15;3.50;;;1.30;;
73113;SDS011;61301;51.956;5.876;2023-10-31T01:14:41;3.60;;;1.00;;
73113;SDS011;61301;51.956;5.876;2023-10-31T01:17:07;2.88;;;2.08;;
73113;SDS011;61301;51.956;5.876;2023-10-31T01:19:33;3.63;;;1.92;;
73113;SDS011;61301;51.956;5.876;2023-10-31T01:22:00;4.25;;;2.25;;
73113;SDS011;61301;51.956;5.876;2023-10-31T01:24:26;6.90;;;4.13;;
73113;SDS011;61301;51.956;5.876;2023-10-31T01:26:52;4.15;;;2.63;;
73113;SDS011;61301;51.956;5.876;2023-10-31T01:29:17;5.90;;;4.05;;
73113;SDS011;61301;51.956;5.876;2023-10-31T01:31:44;8.23;;;6.40;;
73113;SDS011;61301;51.956;5.876;2023-10-31T01:34:11;9.13;;;7.35;;
73113;SDS011;61301;51.956;5.876;2023-10-31T01:36:37;6.82;;;5.85;;
73113;SDS011;61301;51.956;5.876;2023-10-31T01:39:03;8.55;;;6.22;;
73113;SDS011;61301;51.956;5.876;2023-10-31T01:41:29;6.95;;;4.88;;
73113;SDS011;61301;51.956;5.876;2023-10-31T01:43:55;4.93;;;3.80;;
73113;SDS011;61301;51.956;5.876;2023-10-31T01:46:21;6.30;;;4.53;;
73113;SDS011;61301;51.956;5.876;2023-10-31T01:48:47;4.68;;;3.47;;
73113;SDS011;61301;51.956;5.876;2023-10-31T01:51:13;5.45;;;4.28;;
73113;SDS011;61301;51.956;5.876;2023-10-31T01:53:39;7.35;;;4.38;;
73113;SDS011;61301;51.956;5.876;2023-10-31T01:56:06;7.80;;;6.10;;
73113;SDS011;61301;51.956;5.876;2023-10-31T01:58:36;7.45;;;4.85;;
73113;SDS011;61301;51.956;5.876;2023-10-31T02:01:03;7.03;;;5.40;;
73113;SDS011;61301;51.956;5.876;2023-10-31T02:03:30;9.65;;;6.75;;
73113;SDS011;61301;51.956;5.876;2023-10-31T02:05:56;6.45;;;5.45;;
73113;SDS011;61301;51.956;5.876;2023-10-31T02:08:23;7.00;;;5.43;;
73113;SDS011;61301;51.956;5.876;2023-10-31T02:10:50;10.35;;;8.02;;
73113;SDS011;61301;51.956;5.876;2023-10-31T02:13:17;7.43;;;6.15;;
73113;SDS011;61301;51.956;5.876;2023-10-31T02:15:44;9.80;;;6.68;;
73113;SDS011;61301;51.956;5.876;2023-10-31T02:18:11;7.50;;;5.80;;
73113;SDS011;61301;51.956;5.876;2023-10-31T02:20:38;7.35;;;5.50;;
73113;SDS011;61301;51.956;5.876;2023-10-31T02:23:04;4.80;;;3.42;;
73113;SDS011;61301;51.956;5.876;2023-10-31T02:25:30;8.23;;;5.38;;
73113;SDS011;61301;51.956;5.876;2023-10-31T02:27:57;6.07;;;4.65;;
73113;SDS011;61301;51.956;5.876;2023-10-31T02:30:23;11.02;;;5.07;;
73113;SDS011;61301;51.956;5.876;2023-10-31T02:32:50;7.28;;;4.78;;
73113;SDS011;61301;51.956;5.876;2023-10-31T02:35:16;7.18;;;5.45;;
73113;SDS011;61301;51.956;5.876;2023-10-31T02:37:44;8.00;;;4.70;;
73113;SDS011;61301;51.956;5.876;2023-10-31T02:40:10;8.20;;;4.63;;
73113;SDS011;61301;51.956;5.876;2023-10-31T02:42:37;7.57;;;5.10;;
73113;SDS011;61301;51.956;5.876;2023-10-31T02:45:03;8.38;;;5.53;;
73113;SDS011;61301;51.956;5.876;2023-10-31T02:47:29;5.85;;;5.07;;
73113;SDS011;61301;51.956;5.876;2023-10-31T02:49:55;8.73;;;5.78;;
73113;SDS011;61301;51.956;5.876;2023-10-31T02:52:21;9.82;;;7.93;;
73113;SDS011;61301;51.956;5.876;2023-10-31T02:54:47;8.32;;;6.68;;
73113;SDS011;61301;51.956;5.876;2023-10-31T02:57:14;9.82;;;7.68;;
73113;SDS011;61301;51.956;5.876;2023-10-31T02:59:41;11.75;;;7.75;;
73113;SDS011;61301;51.956;5.876;2023-10-31T03:02:07;9.38;;;7.78;;
73113;SDS011;61301;51.956;5.876;2023-10-31T03:04:33;8.93;;;8.02;;
73113;SDS011;61301;51.956;5.876;2023-10-31T03:06:59;9.32;;;7.53;;
73113;SDS011;61301;51.956;5.876;2023-10-31T03:09:25;12.43;;;7.50;;
73113;SDS011;61301;51.956;5.876;2023-10-31T03:11:51;7.80;;;6.65;;
73113;SDS011;61301;51.956;5.876;2023-10-31T03:14:18;9.05;;;7.13;;
73113;SDS011;61301;51.956;5.876;2023-10-31T03:16:44;8.25;;;6.32;;
73113;SDS011;61301;51.956;5.876;2023-10-31T03:19:10;9.32;;;7.15;;
73113;SDS011;61301;51.956;5.876;2023-10-31T03:21:36;13.55;;;9.10;;
73113;SDS011;61301;51.956;5.876;2023-10-31T03:24:02;11.00;;;7.88;;
73113;SDS011;61301;51.956;5.876;2023-10-31T03:26:28;9.75;;;8.45;;
73113;SDS011;61301;51.956;5.876;2023-10-31T03:28:54;9.90;;;7.95;;
73113;SDS011;61301;51.956;5.876;2023-10-31T03:31:23;8.43;;;7.35;;
73113;SDS011;61301;51.956;5.876;2023-10-31T03:33:49;7.40;;;6.32;;
73113;SDS011;61301;51.956;5.876;2023-10-31T03:36:15;10.82;;;8.45;;
73113;SDS011;61301;51.956;5.876;2023-10-31T03:38:41;9.07;;;7.93;;
73113;SDS011;61301;51.956;5.876;2023-10-31T03:41:07;8.82;;;7.63;;
73113;SDS011;61301;51.956;5.876;2023-10-31T03:43:33;10.73;;;8.63;;
73113;SDS011;61301;51.956;5.876;2023-10-31T03:45:59;9.70;;;6.80;;
73113;SDS011;61301;51.956;5.876;2023-10-31T03:48:26;11.23;;;8.73;;
73113;SDS011;61301;51.956;5.876;2023-10-31T03:50:52;10.57;;;8.25;;
73113;SDS011;61301;51.956;5.876;2023-10-31T03:53:18;12.07;;;7.70;;
73113;SDS011;61301;51.956;5.876;2023-10-31T03:55:44;9.45;;;6.95;;
73113;SDS011;61301;51.956;5.876;2023-10-31T03:58:10;8.27;;;6.32;;
73113;SDS011;61301;51.956;5.876;2023-10-31T04:00:38;8.18;;;7.13;;
73113;SDS011;61301;51.956;5.876;2023-10-31T04:03:05;9.13;;;5.25;;
73113;SDS011;61301;51.956;5.876;2023-10-31T04:05:31;6.20;;;5.22;;
73113;SDS011;61301;51.956;5.876;2023-10-31T04:07:57;6.32;;;5.43;;
73113;SDS011;61301;51.956;5.876;2023-10-31T04:10:23;8.32;;;6.30;;
73113;SDS011;61301;51.956;5.876;2023-10-31T04:12:49;5.80;;;5.20;;
73113;SDS011;61301;51.956;5.876;2023-10-31T04:15:15;7.72;;;5.85;;
73113;SDS011;61301;51.956;5.876;2023-10-31T04:17:40;5.50;;;4.47;;
73113;SDS011;61301;51.956;5.876;2023-10-31T04:20:07;6.80;;;4.30;;
73113;SDS011;61301;51.956;5.876;2023-10-31T04:22:33;6.18;;;3.40;;
73113;SDS011;61301;51.956;5.876;2023-10-31T04:24:59;4.60;;;3.13;;
73113;SDS011;61301;51.956;5.876;2023-10-31T04:27:25;5.15;;;3.17;;
73113;SDS011;61301;51.956;5.876;2023-10-31T04:29:51;5.45;;;3.47;;
73113;SDS011;61301;51.956;5.876;2023-10-31T04:32:17;3.70;;;2.90;;
73113;SDS011;61301;51.956;5.876;2023-10-31T04:34:43;4.45;;;2.90;;
73113;SDS011;61301;51.956;5.876;2023-10-31T04:37:09;3.70;;;2.70;;
73113;SDS011;61301;51.956;5.876;2023-10-31T04:39:35;2.90;;;2.30;;
73113;SDS011;61301;51.956;5.876;2023-10-31T04:42:01;5.15;;;2.90;;
73113;SDS011;61301;51.956;5.876;2023-10-31T04:44:27;4.82;;;3.05;;
73113;SDS011;61301;51.956;5.876;2023-10-31T04:46:53;4.43;;;3.15;;
73113;SDS011;61301;51.956;5.876;2023-10-31T04:49:19;4.80;;;3.00;;
73113;SDS011;61301;51.956;5.876;2023-10-31T04:51:46;3.92;;;2.08;;
73113;SDS011;61301;51.956;5.876;2023-10-31T04:54:12;4.32;;;2.75;;
73113;SDS011;61301;51.956;5.876;2023-10-31T04:56:38;3.15;;;2.85;;
73113;SDS011;61301;51.956;5.876;2023-10-31T04:59:04;5.03;;;4.35;;
73113;SDS011;61301;51.956;5.876;2023-10-31T05:01:30;5.18;;;2.80;;
73113;SDS011;61301;51.956;5.876;2023-10-31T05:03:57;3.55;;;2.88;;
73113;SDS011;61301;51.956;5.876;2023-10-31T05:06:23;5.28;;;4.03;;
73113;SDS011;61301;51.956;5.876;2023-10-31T05:08:49;4.47;;;3.55;;
73113;SDS011;61301;51.956;5.876;2023-10-31T05:11:17;4.70;;;3.42;;
73113;SDS011;61301;51.956;5.876;2023-10-31T05:13:47;6.55;;;4.50;;
73113;SDS011;61301;51.956;5.876;2023-10-31T05:16:13;4.30;;;3.30;;
73113;SDS011;61301;51.956;5.876;2023-10-31T05:18:39;5.25;;;4.75;;
73113;SDS011;61301;51.956;5.876;2023-10-31T05:21:05;7.28;;;5.05;;
73113;SDS011;61301;51.956;5.876;2023-10-31T05:23:31;6.22;;;4.13;;
73113;SDS011;61301;51.956;5.876;2023-10-31T05:25:57;5.03;;;3.88;;
73113;SDS011;61301;51.956;5.876;2023-10-31T05:28:23;4.80;;;3.30;;
73113;SDS011;61301;51.956;5.876;2023-10-31T05:30:49;4.90;;;2.70;;
73113;SDS011;61301;51.956;5.876;2023-10-31T05:33:15;4.72;;;3.88;;
73113;SDS011;61301;51.956;5.876;2023-10-31T05:35:42;5.95;;;3.65;;
73113;SDS011;61301;51.956;5.876;2023-10-31T05:38:08;3.33;;;2.63;;
73113;SDS011;61301;51.956;5.876;2023-10-31T05:40:34;4.25;;;3.55;;
73113;SDS011;61301;51.956;5.876;2023-10-31T05:43:03;6.70;;;4.68;;
73113;SDS011;61301;51.956;5.876;2023-10-31T05:45:29;5.03;;;3.05;;
73113;SDS011;61301;51.956;5.876;2023-10-31T05:47:56;5.28;;;3.00;;
73113;SDS011;61301;51.956;5.876;2023-10-31T05:50:22;3.30;;;2.60;;
73113;SDS011;61301;51.956;5.876;2023-10-31T05:52:48;4.53;;;3.65;;
73113;SDS011;61301;51.956;5.876;2023-10-31T05:55:14;4.03;;;3.00;;
73113;SDS011;61301;51.956;5.876;2023-10-31T05:57:40;3.92;;;2.50;;
73113;SDS011;61301;51.956;5.876;2023-10-31T06:00:07;3.42;;;2.35;;
73113;SDS011;61301;51.956;5.876;2023-10-31T06:02:40;2.63;;;1.77;;
73113;SDS011;61301;51.956;5.876;2023-10-31T06:05:06;3.63;;;2.42;;
73113;SDS011;61301;51.956;5.876;2023-10-31T06:07:32;4.72;;;2.13;;
73113;SDS011;61301;51.956;5.876;2023-10-31T06:09:58;2.28;;;2.00;;
73113;SDS011;61301;51.956;5.876;2023-10-31T06:12:24;2.90;;;1.80;;
73113;SDS011;61301;51.956;5.876;2023-10-31T06:14:53;1.73;;;1.10;;
73113;SDS011;61301;51.956;5.876;2023-10-31T06:17:19;2.72;;;1.30;;
73113;SDS011;61301;51.956;5.876;2023-10-31T06:19:45;1.90;;;1.30;;
73113;SDS011;61301;51.956;5.876;2023-10-31T06:22:13;1.73;;;0.93;;
73113;SDS011;61301;51.956;5.876;2023-10-31T06:24:39;1.00;;;0.88;;
73113;SDS011;61301;51.956;5.876;2023-10-31T06:27:06;1.00;;;0.90;;
73113;SDS011;61301;51.956;5.876;2023-10-31T06:29:32;2.58;;;0.98;;
73113;SDS011;61301;51.956;5.876;2023-10-31T06:31:58;0.95;;;0.85;;
73113;SDS011;61301;51.956;5.876;2023-10-31T06:34:24;2.25;;;1.15;;
73113;SDS011;61301;51.956;5.876;2023-10-31T06:36:50;1.20;;;0.77;;
73113;SDS011;61301;51.956;5.876;2023-10-31T06:39:17;1.58;;;1.00;;
73113;SDS011;61301;51.956;5.876;2023-10-31T06:41:47;1.90;;;1.13;;
73113;SDS011;61301;51.956;5.876;2023-10-31T06:44:12;3.67;;;1.45;;
73113;SDS011;61301;51.956;5.876;2023-10-31T06:46:38;1.83;;;1.20;;
73113;SDS011;61301;51.956;5.876;2023-10-31T06:49:04;3.70;;;1.67;;
73113;SDS011;61301;51.956;5.876;2023-10-31T06:51:30;6.97;;;3.17;;
73113;SDS011;61301;51.956;5.876;2023-10-31T06:53:56;4.90;;;3.63;;
73113;SDS011;61301;51.956;5.876;2023-10-31T06:56:22;5.88;;;4.03;;
73113;SDS011;61301;51.956;5.876;2023-10-31T06:58:48;7.13;;;4.20;;
73113;SDS011;61301;51.956;5.876;2023-10-31T07:01:14;8.90;;;5.57;;
73113;SDS011;61301;51.956;5.876;2023-10-31T07:03:44;6.07;;;4.70;;
73113;SDS011;61301;51.956;5.876;2023-10-31T07:06:10;4.65;;;3.88;;
73113;SDS011;61301;51.956;5.876;2023-10-31T07:08:36;6.65;;;4.22;;
73113;SDS011;61301;51.956;5.876;2023-10-31T07:11:02;6.32;;;4.47;;
73113;SDS011;61301;51.956;5.876;2023-10-31T07:13:28;6.35;;;4.75;;
73113;SDS011;61301;51.956;5.876;2023-10-31T07:15:55;8.85;;;6.32;;
73113;SDS011;61301;51.956;5.876;2023-10-31T07:18:21;7.05;;;5.57;;
73113;SDS011;61301;51.956;5.876;2023-10-31T07:20:47;8.70;;;7.20;;
73113;SDS011;61301;51.956;5.876;2023-10-31T07:23:13;7.68;;;5.60;;
73113;SDS011;61301;51.956;5.876;2023-10-31T07:25:39;9.93;;;7.80;;
73113;SDS011;61301;51.956;5.876;2023-10-31T07:28:05;9.52;;;7.38;;
73113;SDS011;61301;51.956;5.876;2023-10-31T07:30:31;9.98;;;7.50;;
73113;SDS011;61301;51.956;5.876;2023-10-31T07:32:57;8.65;;;7.00;;
73113;SDS011;61301;51.956;5.876;2023-10-31T07:35:23;9.38;;;7.22;;
73113;SDS011;61301;51.956;5.876;2023-10-31T07:37:49;10.27;;;8.38;;
73113;SDS011;61301;51.956;5.876;2023-10-31T07:40:15;10.65;;;8.90;;
73113;SDS011;61301;51.956;5.876;2023-10-31T07:42:40;6.55;;;5.85;;
73113;SDS011;61301;51.956;5.876;2023-10-31T07:45:06;11.07;;;9.30;;
73113;SDS011;61301;51.956;5.876;2023-10-31T07:47:33;14.45;;;11.55;;
73113;SDS011;61301;51.956;5.876;2023-10-31T07:49:59;13.50;;;9.68;;
73113;SDS011;61301;51.956;5.876;2023-10-31T07:52:25;11.00;;;9.82;;
73113;SDS011;61301;51.956;5.876;2023-10-31T07:54:51;12.45;;;10.50;;
73113;SDS011;61301;51.956;5.876;2023-10-31T07:57:17;12.13;;;10.48;;
73113;SDS011;61301;51.956;5.876;2023-10-31T07:59:43;10.32;;;9.23;;
73113;SDS011;61301;51.956;5.876;2023-10-31T08:02:10;13.15;;;10.90;;
73113;SDS011;61301;51.956;5.876;2023-10-31T08:04:36;12.38;;;11.07;;
73113;SDS011;61301;51.956;5.876;2023-10-31T08:07:02;10.35;;;9.32;;
73113;SDS011;61301;51.956;5.876;2023-10-31T08:09:29;12.18;;;10.88;;
73113;SDS011;61301;51.956;5.876;2023-10-31T08:11:55;8.82;;;7.55;;
73113;SDS011;61301;51.956;5.876;2023-10-31T08:14:21;11.07;;;9.90;;
73113;SDS011;61301;51.956;5.876;2023-10-31T08:16:47;11.63;;;9.77;;
73113;SDS011;61301;51.956;5.876;2023-10-31T08:19:13;10.20;;;8.68;;
73113;SDS011;61301;51.956;5.876;2023-10-31T08:21:40;8.68;;;6.72;;
73113;SDS011;61301;51.956;5.876;2023-10-31T08:24:06;10.07;;;8.73;;
73113;SDS011;61301;51.956;5.876;2023-10-31T08:26:32;8.88;;;6.45;;
73113;SDS011;61301;51.956;5.876;2023-10-31T08:28:58;7.70;;;6.88;;
73113;SDS011;61301;51.956;5.876;2023-10-31T08:31:25;8.02;;;7.20;;
73113;SDS011;61301;51.956;5.876;2023-10-31T08:33:51;8.30;;;6.55;;
73113;SDS011;61301;51.956;5.876;2023-10-31T08:36:16;7.75;;;6.53;;
73113;SDS011;61301;51.956;5.876;2023-10-31T08:38:42;7.40;;;5.93;;
73113;SDS011;61301;51.956;5.876;2023-10-31T08:41:08;6.22;;;4.72;;
73113;SDS011;61301;51.956;5.876;2023-10-31T08:43:34;6.28;;;4.97;;
73113;SDS011;61301;51.956;5.876;2023-10-31T08:46:00;6.20;;;5.00;;
73113;SDS011;61301;51.956;5.876;2023-10-31T08:48:26;7.35;;;5.53;;
73113;SDS011;61301;51.956;5.876;2023-10-31T08:50:52;4.78;;;3.75;;
73113;SDS011;61301;51.956;5.876;2023-10-31T08:53:18;7.32;;;4.05;;
73113;SDS011;61301;51.956;5.876;2023-10-31T08:55:44;6.90;;;4.47;;
73113;SDS011;61301;51.956;5.876;2023-10-31T08:58:11;10.77;;;5.68;;
73113;SDS011;61301;51.956;5.876;2023-10-31T09:00:38;5.35;;;4.32;;
73113;SDS011;61301;51.956;5.876;2023-10-31T09:03:06;7.00;;;5.00;;
73113;SDS011;61301;51.956;5.876;2023-10-31T09:05:33;8.95;;;5.55;;
73113;SDS011;61301;51.956;5.876;2023-10-31T09:07:59;7.95;;;5.60;;
73113;SDS011;61301;51.956;5.876;2023-10-31T09:10:25;6.47;;;5.10;;
73113;SDS011;61301;51.956;5.876;2023-10-31T09:12:51;7.20;;;5.32;;
73113;SDS011;61301;51.956;5.876;2023-10-31T09:15:18;6.28;;;5.15;;
73113;SDS011;61301;51.956;5.876;2023-10-31T09:17:44;6.45;;;4.95;;
73113;SDS011;61301;51.956;5.876;2023-10-31T09:20:10;7.82;;;5.28;;
73113;SDS011;61301;51.956;5.876;2023-10-31T09:22:37;7.22;;;5.00;;
73113;SDS011;61301;51.956;5.876;2023-10-31T09:25:03;4.78;;;4.18;;
73113;SDS011;61301;51.956;5.876;2023-10-31T09:27:30;8.05;;;4.90;;
73113;SDS011;61301;51.956;5.876;2023-10-31T09:29:56;6.80;;;4.93;;
73113;SDS011;61301;51.956;5.876;2023-10-31T09:32:22;8.48;;;3.85;;
73113;SDS011;61301;51.956;5.876;2023-10-31T09:34:48;8.35;;;4.68;;
73113;SDS011;61301;51.956;5.876;2023-10-31T09:37:14;6.80;;;4.97;;
73113;SDS011;61301;51.956;5.876;2023-10-31T09:39:40;6.57;;;4.88;;
73113;SDS011;61301;51.956;5.876;2023-10-31T09:42:06;6.45;;;3.92;;
73113;SDS011;61301;51.956;5.876;2023-10-31T09:44:33;6.78;;;5.30;;
73113;SDS011;61301;51.956;5.876;2023-10-31T09:47:00;8.02;;;6.15;;
73113;SDS011;61301;51.956;5.876;2023-10-31T09:49:26;9.15;;;5.43;;
73113;SDS011;61301;51.956;5.876;2023-10-31T09:51:53;9.43;;;7.30;;
73113;SDS011;61301;51.956;5.876;2023-10-31T09:54:19;11.07;;;7.47;;
73113;SDS011;61301;51.956;5.876;2023-10-31T09:56:46;7.82;;;6.95;;
73113;SDS011;61301;51.956;5.876;2023-10-31T09:59:15;8.65;;;7.60;;
73113;SDS011;61301;51.956;5.876;2023-10-31T10:01:41;10.52;;;5.22;;
73113;SDS011;61301;51.956;5.876;2023-10-31T10:04:07;7.53;;;5.60;;
73113;SDS011;61301;51.956;5.876;2023-10-31T10:06:33;6.40;;;4.78;;
73113;SDS011;61301;51.956;5.876;2023-10-31T10:08:59;6.10;;;4.82;;
73113;SDS011;61301;51.956;5.876;2023-10-31T10:11:28;7.90;;;5.68;;
73113;SDS011;61301;51.956;5.876;2023-10-31T10:13:54;7.95;;;6.97;;
73113;SDS011;61301;51.956;5.876;2023-10-31T10:16:32;6.43;;;5.70;;
73113;SDS011;61301;51.956;5.876;2023-10-31T10:19:14;9.05;;;5.53;;
73113;SDS011;61301;51.956;5.876;2023-10-31T10:21:49;8.63;;;6.47;;
73113;SDS011;61301;51.956;5.876;2023-10-31T10:24:20;8.55;;;7.65;;
73113;SDS011;61301;51.956;5.876;2023-10-31T10:26:46;7.80;;;5.35;;
73113;SDS011;61301;51.956;5.876;2023-10-31T10:29:13;8.15;;;5.43;;
73113;SDS011;61301;51.956;5.876;2023-10-31T10:31:39;6.63;;;4.72;;
73113;SDS011;61301;51.956;5.876;2023-10-31T10:34:06;7.78;;;4.00;;
73113;SDS011;61301;51.956;5.876;2023-10-31T10:36:33;10.32;;;5.07;;
73113;SDS011;61301;51.956;5.876;2023-10-31T10:39:00;7.70;;;4.78;;
73113;SDS011;61301;51.956;5.876;2023-10-31T10:41:26;6.80;;;4.75;;
73113;SDS011;61301;51.956;5.876;2023-10-31T10:43:57;7.93;;;4.68;;
73113;SDS011;61301;51.956;5.876;2023-10-31T10:46:34;5.95;;;4.45;;
73113;SDS011;61301;51.956;5.876;2023-10-31T10:49:05;5.45;;;3.65;;
73113;SDS011;61301;51.956;5.876;2023-10-31T10:51:40;10.02;;;5.00;;
73113;SDS011;61301;51.956;5.876;2023-10-31T10:54:15;7.88;;;4.45;;
73113;SDS011;61301;51.956;5.876;2023-10-31T10:56:51;6.85;;;3.75;;
73113;SDS011;61301;51.956;5.876;2023-10-31T10:59:25;11.57;;;6.18;;
73113;SDS011;61301;51.956;5.876;2023-10-31T11:01:57;6.85;;;4.15;;
73113;SDS011;61301;51.956;5.876;2023-10-31T11:04:26;10.18;;;4.70;;
73113;SDS011;61301;51.956;5.876;2023-10-31T11:06:58;6.53;;;3.97;;
73113;SDS011;61301;51.956;5.876;2023-10-31T11:09:24;5.53;;;4.25;;
73113;SDS011;61301;51.956;5.876;2023-10-31T11:11:51;8.68;;;4.68;;
73113;SDS011;61301;51.956;5.876;2023-10-31T11:14:22;9.18;;;6.80;;
73113;SDS011;61301;51.956;5.876;2023-10-31T11:16:53;8.95;;;8.02;;
73113;SDS011;61301;51.956;5.876;2023-10-31T11:19:21;8.48;;;6.70;;
73113;SDS011;61301;51.956;5.876;2023-10-31T11:21:55;11.60;;;8.93;;
73113;SDS011;61301;51.956;5.876;2023-10-31T11:24:26;11.30;;;8.52;;
73113;SDS011;61301;51.956;5.876;2023-10-31T11:27:03;11.70;;;8.43;;
73113;SDS011;61301;51.956;5.876;2023-10-31T11:29:31;11.23;;;10.10;;
73113;SDS011;61301;51.956;5.876;2023-10-31T11:31:58;13.68;;;11.15;;
73113;SDS011;61301;51.956;5.876;2023-10-31T11:34:28;19.45;;;13.38;;
73113;SDS011;61301;51.956;5.876;2023-10-31T11:42:40;17.52;;;13.55;;
73113;SDS011;61301;51.956;5.876;2023-10-31T11:45:10;14.40;;;12.10;;
73113;SDS011;61301;51.956;5.876;2023-10-31T11:47:49;18.77;;;15.57;;
73113;SDS011;61301;51.956;5.876;2023-10-31T11:50:16;21.88;;;15.80;;
73113;SDS011;61301;51.956;5.876;2023-10-31T11:52:42;18.48;;;15.55;;
73113;SDS011;61301;51.956;5.876;2023-10-31T11:55:09;21.08;;;16.17;;
73113;SDS011;61301;51.956;5.876;2023-10-31T11:57:36;18.33;;;14.77;;
73113;SDS011;61301;51.956;5.876;2023-10-31T12:00:03;18.05;;;15.43;;
73113;SDS011;61301;51.956;5.876;2023-10-31T12:02:38;17.60;;;14.25;;
73113;SDS011;61301;51.956;5.876;2023-10-31T12:05:10;19.75;;;15.63;;
73113;SDS011;61301;51.956;5.876;2023-10-31T12:07:44;18.67;;;13.88;;
73113;SDS011;61301;51.956;5.876;2023-10-31T12:10:11;19.95;;;13.82;;
73113;SDS011;61301;51.956;5.876;2023-10-31T12:12:38;18.30;;;14.00;;
73113;SDS011;61301;51.956;5.876;2023-10-31T12:15:07;22.42;;;14.55;;
73113;SDS011;61301;51.956;5.876;2023-10-31T12:17:34;15.75;;;12.70;;
73113;SDS011;61301;51.956;5.876;2023-10-31T12:20:07;16.30;;;12.45;;
73113;SDS011;61301;51.956;5.876;2023-10-31T12:22:34;22.50;;;14.00;;
73113;SDS011;61301;51.956;5.876;2023-10-31T12:25:01;17.95;;;12.70;;
73113;SDS011;61301;51.956;5.876;2023-10-31T12:27:44;24.00;;;14.98;;
73113;SDS011;61301;51.956;5.876;2023-10-31T12:30:12;22.52;;;15.73;;
73113;SDS011;61301;51.956;5.876;2023-10-31T12:32:40;23.30;;;14.93;;
73113;SDS011;61301;51.956;5.876;2023-10-31T12:35:08;25.15;;;15.35;;
73113;SDS011;61301;51.956;5.876;2023-10-31T12:37:43;25.52;;;15.85;;
73113;SDS011;61301;51.956;5.876;2023-10-31T12:40:14;22.67;;;15.05;;
73113;SDS011;61301;51.956;5.876;2023-10-31T12:42:44;17.10;;;12.55;;
73113;SDS011;61301;51.956;5.876;2023-10-31T12:45:12;18.17;;;13.82;;
73113;SDS011;61301;51.956;5.876;2023-10-31T12:47:38;23.88;;;14.93;;
73113;SDS011;61301;51.956;5.876;2023-10-31T12:50:08;22.15;;;15.05;;
73113;SDS011;61301;51.956;5.876;2023-10-31T12:52:49;19.77;;;15.50;;
73113;SDS011;61301;51.956;5.876;2023-10-31T12:55:17;22.67;;;16.63;;
73113;SDS011;61301;51.956;5.876;2023-10-31T12:57:47;18.30;;;13.57;;
73113;SDS011;61301;51.956;5.876;2023-10-31T13:00:16;16.95;;;12.02;;
73113;SDS011;61301;51.956;5.876;2023-10-31T13:02:50;19.98;;;13.35;;
73113;SDS011;61301;51.956;5.876;2023-10-31T13:05:26;20.50;;;15.63;;
73113;SDS011;61301;51.956;5.876;2023-10-31T13:07:54;22.50;;;14.93;;
73113;SDS011;61301;51.956;5.876;2023-10-31T13:10:26;19.23;;;13.88;;
73113;SDS011;61301;51.956;5.876;2023-10-31T13:12:53;24.83;;;17.15;;
73113;SDS011;61301;51.956;5.876;2023-10-31T13:15:21;22.80;;;15.95;;
73113;SDS011;61301;51.956;5.876;2023-10-31T13:17:51;21.52;;;16.30;;
73113;SDS011;61301;51.956;5.876;2023-10-31T13:20:21;17.63;;;14.18;;
73113;SDS011;61301;51.956;5.876;2023-10-31T13:22:47;21.25;;;16.05;;
73113;SDS011;61301;51.956;5.876;2023-10-31T13:25:14;19.77;;;14.75;;
73113;SDS011;61301;51.956;5.876;2023-10-31T13:27:42;20.63;;;13.55;;
73113;SDS011;61301;51.956;5.876;2023-10-31T13:30:09;19.75;;;13.93;;
73113;SDS011;61301;51.956;5.876;2023-10-31T13:32:37;16.40;;;11.95;;
73113;SDS011;61301;51.956;5.876;2023-10-31T13:35:04;19.08;;;11.77;;
73113;SDS011;61301;51.956;5.876;2023-10-31T13:37:31;14.05;;;10.77;;
73113;SDS011;61301;51.956;5.876;2023-10-31T13:39:57;16.38;;;11.10;;
73113;SDS011;61301;51.956;5.876;2023-10-31T13:42:23;15.02;;;12.65;;
73113;SDS011;61301;51.956;5.876;2023-10-31T13:44:49;18.25;;;13.60;;
73113;SDS011;61301;51.956;5.876;2023-10-31T13:47:15;15.88;;;13.88;;
73113;SDS011;61301;51.956;5.876;2023-10-31T13:49:41;17.10;;;14.10;;
73113;SDS011;61301;51.956;5.876;2023-10-31T13:52:07;18.15;;;13.85;;
73113;SDS011;61301;51.956;5.876;2023-10-31T13:54:32;18.15;;;12.95;;
73113;SDS011;61301;51.956;5.876;2023-10-31T13:56:58;14.13;;;11.82;;
73113;SDS011;61301;51.956;5.876;2023-10-31T13:59:25;17.55;;;13.27;;
73113;SDS011;61301;51.956;5.876;2023-10-31T14:01:51;12.93;;;11.02;;
73113;SDS011;61301;51.956;5.876;2023-10-31T14:04:18;13.43;;;10.32;;
73113;SDS011;61301;51.956;5.876;2023-10-31T14:06:45;10.00;;;9.00;;
73113;SDS011;61301;51.956;5.876;2023-10-31T14:09:11;12.30;;;10.65;;
73113;SDS011;61301;51.956;5.876;2023-10-31T14:11:38;14.73;;;10.05;;
73113;SDS011;61301;51.956;5.876;2023-10-31T14:14:05;13.15;;;10.98;;
73113;SDS011;61301;51.956;5.876;2023-10-31T14:16:39;12.65;;;9.80;;
73113;SDS011;61301;51.956;5.876;2023-10-31T14:19:06;9.05;;;8.15;;
73113;SDS011;61301;51.956;5.876;2023-10-31T14:21:33;11.55;;;8.82;;
73113;SDS011;61301;51.956;5.876;2023-10-31T14:24:00;12.13;;;9.52;;
73113;SDS011;61301;51.956;5.876;2023-10-31T14:26:26;12.75;;;11.40;;
73113;SDS011;61301;51.956;5.876;2023-10-31T14:28:53;12.43;;;10.30;;
73113;SDS011;61301;51.956;5.876;2023-10-31T14:31:19;12.52;;;10.35;;
73113;SDS011;61301;51.956;5.876;2023-10-31T14:33:48;12.07;;;9.02;;
73113;SDS011;61301;51.956;5.876;2023-10-31T14:36:14;9.75;;;7.88;;
73113;SDS011;61301;51.956;5.876;2023-10-31T14:38:40;11.55;;;9.50;;
73113;SDS011;61301;51.956;5.876;2023-10-31T14:41:07;12.02;;;8.15;;
73113;SDS011;61301;51.956;5.876;2023-10-31T14:43:33;12.05;;;9.32;;
73113;SDS011;61301;51.956;5.876;2023-10-31T14:46:00;10.35;;;9.20;;